createdAt,value
2022-12-08T00:02:12.113Z,95088.00
2022-12-08T00:04:38.940Z,95088.78
2022-12-08T00:07:05.389Z,95082.84
2022-12-08T00:09:39.520Z,95082.75
2022-12-08T00:12:07.823Z,95069.19
2022-12-08T00:14:38.535Z,95072.78
2022-12-08T00:17:07.047Z,95063.00
2022-12-08T00:19:34.044Z,95058.34
2022-12-08T00:22:00.577Z,95054.91
2022-12-08T00:24:32.444Z,95057.72
2022-12-08T00:26:58.905Z,95055.44
2022-12-08T00:29:25.436Z,95058.81
2022-12-08T00:31:52.440Z,95051.38
2022-12-08T00:34:20.078Z,95057.59
2022-12-08T00:36:47.123Z,95047.06
2022-12-08T00:39:15.271Z,95043.03
2022-12-08T00:41:41.824Z,95046.31
2022-12-08T00:44:09.981Z,95041.56
2022-12-08T00:46:37.016Z,95032.41
2022-12-08T00:49:05.601Z,95036.00
2022-12-08T00:51:33.163Z,95038.94
2022-12-08T00:53:59.975Z,95040.09
2022-12-08T00:56:27.504Z,95043.53
2022-12-08T00:58:54.461Z,95041.25
2022-12-08T01:01:21.165Z,95040.25
2022-12-08T01:03:48.088Z,95044.22
2022-12-08T01:06:14.663Z,95038.31
2022-12-08T01:08:41.869Z,95047.63
2022-12-08T01:11:17.550Z,95041.91
2022-12-08T01:13:44.480Z,95042.06
2022-12-08T01:16:29.250Z,95038.31
2022-12-08T01:18:57.625Z,95037.00
2022-12-08T01:21:25.646Z,95035.69
2022-12-08T01:23:52.318Z,95038.00
2022-12-08T01:26:19.799Z,95034.41
2022-12-08T01:28:47.501Z,95034.03
2022-12-08T01:31:17.365Z,95039.63
2022-12-08T01:33:45.378Z,95029.78
2022-12-08T01:36:24.461Z,95034.06
2022-12-08T01:38:52.394Z,95031.78
2022-12-08T01:41:23.733Z,95030.13
2022-12-08T01:44:08.252Z,95030.75
2022-12-08T01:46:37.904Z,95029.63
2022-12-08T01:49:32.892Z,95026.84
2022-12-08T01:52:10.810Z,95018.84
2022-12-08T01:54:44.706Z,95019.63
2022-12-08T01:57:18.540Z,95020.63
2022-12-08T01:59:52.988Z,95024.38
2022-12-08T02:02:19.537Z,95021.44
2022-12-08T02:04:46.041Z,95015.38
2022-12-08T02:07:16.223Z,95011.09
2022-12-08T02:09:44.017Z,95015.38
2022-12-08T02:12:11.799Z,95010.16
2022-12-08T02:14:38.929Z,95004.91
2022-12-08T02:17:26.624Z,95007.84
2022-12-08T02:20:18.491Z,95003.28
2022-12-08T02:22:57.111Z,95001.81
2022-12-08T02:25:36.232Z,94996.75
2022-12-08T02:28:27.445Z,94994.44
2022-12-08T02:31:20.453Z,94984.28
2022-12-08T02:34:14.781Z,94985.44
2022-12-08T02:37:08.180Z,94981.69
2022-12-08T02:39:57.991Z,94979.69
2022-12-08T02:42:30.616Z,94977.06
2022-12-08T02:45:24.664Z,94971.53
2022-12-08T02:47:52.453Z,94967.94
2022-12-08T02:50:19.352Z,94968.56
2022-12-08T02:52:47.656Z,94958.34
2022-12-08T02:55:30.547Z,94963.34
2022-12-08T02:58:06.135Z,94960.06
2022-12-08T03:01:10.955Z,94957.25
2022-12-08T03:03:46.633Z,94960.38
2022-12-08T03:06:42.644Z,94953.00
2022-12-08T03:09:30.560Z,94946.28
2022-12-08T03:12:41.583Z,94948.72
2022-12-08T03:15:14.158Z,94950.50
2022-12-08T03:17:47.157Z,94944.09
2022-12-08T03:20:20.583Z,94947.06
2022-12-08T03:22:51.689Z,94948.56
2022-12-08T03:25:22.676Z,94946.59
2022-12-08T03:27:51.433Z,94940.03
2022-12-08T03:30:18.589Z,94945.56
2022-12-08T03:33:01.515Z,94937.75
2022-12-08T03:35:33.046Z,94939.38
2022-12-08T03:38:12.050Z,94939.22
2022-12-08T03:40:39.676Z,94927.91
2022-12-08T03:43:06.212Z,94934.47
2022-12-08T03:45:33.098Z,94930.88
2022-12-08T03:47:59.583Z,94930.56
2022-12-08T03:50:26.425Z,94914.69
2022-12-08T03:52:52.900Z,94911.28
2022-12-08T03:55:19.665Z,94908.66
2022-12-08T03:57:46.197Z,94913.22
2022-12-08T04:00:15.719Z,94907.34
2022-12-08T04:02:42.402Z,94907.69
2022-12-08T04:05:09.035Z,94896.22
2022-12-08T04:07:35.606Z,94892.66
2022-12-08T04:10:02.529Z,94895.28
2022-12-08T04:12:35.259Z,94899.84
2022-12-08T04:15:08.670Z,94894.94
2022-12-08T04:17:55.166Z,94896.59
2022-12-08T04:20:21.771Z,94895.25
2022-12-08T04:22:48.272Z,94893.31
2022-12-08T04:25:15.117Z,94894.78
2022-12-08T04:27:41.627Z,94895.13
2022-12-08T04:30:08.661Z,94885.31
2022-12-08T04:32:35.208Z,94893.47
2022-12-08T04:35:01.675Z,94893.97
2022-12-08T04:37:28.565Z,94886.75
2022-12-08T04:39:55.109Z,94897.22
2022-12-08T04:42:21.565Z,94896.19
2022-12-08T04:44:48.060Z,94894.72
2022-12-08T04:47:14.577Z,94889.66
2022-12-08T04:49:41.197Z,94890.63
2022-12-08T04:52:07.657Z,94897.84
2022-12-08T04:54:34.335Z,94889.63
2022-12-08T04:57:00.801Z,94883.69
2022-12-08T04:59:27.306Z,94883.75
2022-12-08T05:01:53.998Z,94887.19
2022-12-08T05:04:20.551Z,94887.38
2022-12-08T05:06:47.172Z,94884.78
2022-12-08T05:09:13.602Z,94886.06
2022-12-08T05:11:42.735Z,94883.81
2022-12-08T05:14:15.523Z,94877.91
2022-12-08T05:16:43.109Z,94874.97
2022-12-08T05:19:10.191Z,94877.75
2022-12-08T05:21:36.686Z,94879.16
2022-12-08T05:24:03.386Z,94876.91
2022-12-08T05:26:30.388Z,94883.69
2022-12-08T05:28:56.872Z,94886.19
2022-12-08T05:31:23.600Z,94875.59
2022-12-08T05:33:51.673Z,94873.66
2022-12-08T05:36:19.284Z,94879.16
2022-12-08T05:38:46.925Z,94869.69
2022-12-08T05:41:17.672Z,94873.44
2022-12-08T05:43:44.734Z,94869.13
2022-12-08T05:46:12.009Z,94866.31
2022-12-08T05:48:38.553Z,94868.66
2022-12-08T05:51:07.559Z,94872.84
2022-12-08T05:53:34.171Z,94871.22
2022-12-08T05:56:00.798Z,94871.94
2022-12-08T05:58:27.257Z,94878.44
2022-12-08T06:00:53.732Z,94872.28
2022-12-08T06:03:20.272Z,94865.69
2022-12-08T06:05:47.399Z,94879.41
2022-12-08T06:08:14.062Z,94865.75
2022-12-08T06:10:42.889Z,94878.84
2022-12-08T06:13:09.441Z,94873.13
2022-12-08T06:15:37.174Z,94871.00
2022-12-08T06:18:04.578Z,94878.22
2022-12-08T06:20:31.354Z,94868.13
2022-12-08T06:22:58.037Z,94863.84
2022-12-08T06:25:24.927Z,94865.84
2022-12-08T06:27:51.627Z,94869.09
2022-12-08T06:30:18.419Z,94872.03
2022-12-08T06:32:44.918Z,94866.81
2022-12-08T06:35:11.390Z,94869.25
2022-12-08T06:37:37.910Z,94866.81
2022-12-08T06:40:04.968Z,94864.19
2022-12-08T06:42:31.643Z,94874.34
2022-12-08T06:44:58.318Z,94869.09
2022-12-08T06:47:26.450Z,94866.50
2022-12-08T06:49:53.175Z,94870.75
2022-12-08T06:52:19.780Z,94875.00
2022-12-08T06:54:46.278Z,94874.34
2022-12-08T06:57:12.808Z,94869.44
2022-12-08T06:59:39.376Z,94861.31
2022-12-08T07:02:06.055Z,94861.44
2022-12-08T07:04:32.611Z,94858.31
2022-12-08T07:06:59.085Z,94867.47
2022-12-08T07:09:25.613Z,94865.50
2022-12-08T07:11:52.146Z,94872.03
2022-12-08T07:14:18.641Z,94871.56
2022-12-08T07:16:45.177Z,94867.81
2022-12-08T07:19:11.726Z,94866.19
2022-12-08T07:21:38.241Z,94860.94
2022-12-08T07:24:05.086Z,94858.78
2022-12-08T07:26:31.545Z,94851.78
2022-12-08T07:28:59.764Z,94860.25
2022-12-08T07:31:27.581Z,94861.44
2022-12-08T07:33:56.029Z,94854.69
2022-12-08T07:36:23.765Z,94855.69
2022-12-08T07:38:51.442Z,94864.22
2022-12-08T07:41:24.852Z,94861.25
2022-12-08T07:43:52.576Z,94867.97
2022-12-08T07:46:21.757Z,94864.84
2022-12-08T07:48:48.320Z,94859.97
2022-12-08T07:51:16.679Z,94853.72
2022-12-08T07:53:51.574Z,94863.06
2022-12-08T07:56:20.301Z,94864.19
2022-12-08T07:58:47.063Z,94858.97
2022-12-08T08:01:26.551Z,94854.44
2022-12-08T08:03:54.911Z,94856.88
2022-12-08T08:06:21.414Z,94858.03
2022-12-08T08:08:48.449Z,94860.13
2022-12-08T08:11:20.760Z,94852.78
2022-12-08T08:13:49.047Z,94852.47
2022-12-08T08:16:15.975Z,94857.03
2022-12-08T08:18:43.124Z,94855.72
2022-12-08T08:21:43.143Z,94860.78
2022-12-08T08:23:56.207Z,94851.97
2022-12-08T08:26:23.409Z,94856.38
2022-12-08T08:28:49.914Z,94853.28
2022-12-08T08:31:16.548Z,94855.72
2022-12-08T08:33:43.099Z,94852.44
2022-12-08T08:36:10.060Z,94854.91
2022-12-08T08:38:36.938Z,94853.44
2022-12-08T08:41:07.939Z,94851.78
2022-12-08T08:43:38.136Z,94849.66
2022-12-08T08:46:05.781Z,94847.25
2022-12-08T08:48:33.001Z,94849.84
2022-12-08T08:51:07.742Z,94847.69
2022-12-08T08:53:34.334Z,94845.25
2022-12-08T08:56:02.699Z,94849.50
2022-12-08T08:58:29.616Z,94847.06
2022-12-08T09:00:56.172Z,94843.66
2022-12-08T09:03:22.813Z,94842.97
2022-12-08T09:05:50.534Z,94843.63
2022-12-08T09:08:17.385Z,94833.47
2022-12-08T09:10:44.052Z,94844.91
2022-12-08T09:13:10.878Z,94838.69
2022-12-08T09:15:37.515Z,94836.06
2022-12-08T09:18:04.437Z,94828.84
2022-12-08T09:20:30.973Z,94820.41
2022-12-08T09:22:57.536Z,94820.06
2022-12-08T09:25:24.103Z,94814.63
2022-12-08T09:27:50.663Z,94809.84
2022-12-08T09:30:17.452Z,94816.78
2022-12-08T09:32:44.002Z,94812.88
2022-12-08T09:35:10.526Z,94819.69
2022-12-08T09:37:37.066Z,94823.88
2022-12-08T09:40:05.416Z,94828.47
2022-12-08T09:42:59.108Z,94830.75
2022-12-08T09:45:33.367Z,94829.31
2022-12-08T09:48:11.562Z,94836.03
2022-12-08T09:50:45.248Z,94821.50
2022-12-08T09:53:35.646Z,94815.16
2022-12-08T09:56:15.101Z,94805.66
2022-12-08T09:59:21.072Z,94814.81
2022-12-08T10:01:47.900Z,94805.03
2022-12-08T10:04:22.034Z,94813.19
2022-12-08T10:07:17.271Z,94796.28
2022-12-08T10:10:08.367Z,94793.63
2022-12-08T10:12:58.407Z,94797.19
2022-12-08T10:15:43.760Z,94780.63
2022-12-08T10:18:17.955Z,94782.47
2022-12-08T10:20:47.888Z,94775.72
2022-12-08T10:23:38.235Z,94779.72
2022-12-08T10:26:08.968Z,94764.78
2022-12-08T10:28:38.819Z,94771.66
2022-12-08T10:31:22.385Z,94762.56
2022-12-08T10:33:57.456Z,94762.88
2022-12-08T10:36:44.555Z,94767.28
2022-12-08T10:39:35.153Z,94765.00
2022-12-08T10:42:08.616Z,94763.19
2022-12-08T10:44:57.760Z,94762.22
2022-12-08T10:47:27.370Z,94754.00
2022-12-08T10:50:29.442Z,94749.44
2022-12-08T10:53:26.167Z,94747.81
2022-12-08T10:56:01.755Z,94747.13
2022-12-08T10:58:30.166Z,94742.56
2022-12-08T11:01:18.693Z,94744.88
2022-12-08T11:04:04.754Z,94748.63
2022-12-08T11:06:33.952Z,94745.81
2022-12-08T11:09:05.265Z,94732.44
2022-12-08T11:11:45.021Z,94738.25
2022-12-08T11:14:27.473Z,94729.34
2022-12-08T11:17:08.273Z,94729.19
2022-12-08T11:19:40.584Z,94731.97
2022-12-08T11:22:27.449Z,94729.22
2022-12-08T11:25:03.637Z,94730.19
2022-12-08T11:27:33.232Z,94721.84
2022-12-08T11:30:01.813Z,94723.31
2022-12-08T11:32:28.634Z,94713.19
2022-12-08T11:35:05.305Z,94711.56
2022-12-08T11:37:38.998Z,94706.31
2022-12-08T11:40:20.078Z,94703.56
2022-12-08T11:42:58.562Z,94698.13
2022-12-08T11:45:32.819Z,94694.88
2022-12-08T11:48:09.754Z,94690.63
2022-12-08T11:50:50.455Z,94691.31
2022-12-08T11:53:22.825Z,94686.34
2022-12-08T11:55:57.857Z,94688.50
2022-12-08T11:58:46.420Z,94693.03
2022-12-08T12:01:20.293Z,94682.72
2022-12-08T12:04:09.577Z,94688.00
2022-12-08T12:07:07.534Z,94679.38
2022-12-08T12:09:55.857Z,94679.16
2022-12-08T12:13:16.800Z,94674.00
2022-12-08T12:16:15.040Z,94666.91
2022-12-08T12:18:44.214Z,94661.63
2022-12-08T12:21:14.949Z,94664.09
2022-12-08T12:23:55.486Z,94656.63
2022-12-08T12:26:29.491Z,94656.97
2022-12-08T12:29:07.512Z,94651.28
2022-12-08T12:31:42.282Z,94651.75
2022-12-08T12:34:25.607Z,94648.25
2022-12-08T12:37:12.770Z,94638.88
2022-12-08T12:40:03.455Z,94633.25
2022-12-08T12:42:46.839Z,94632.56
2022-12-08T12:45:15.946Z,94637.25
2022-12-08T12:48:13.074Z,94639.28
2022-12-08T12:50:39.484Z,94634.19
2022-12-08T12:53:17.999Z,94627.63
2022-12-08T12:55:53.509Z,94635.59
2022-12-08T12:58:35.826Z,94630.72
2022-12-08T13:01:08.318Z,94641.22
2022-12-08T13:03:35.357Z,94623.22
2022-12-08T13:06:02.696Z,94619.03
2022-12-08T13:08:30.639Z,94630.63
2022-12-08T13:11:09.929Z,94623.44
2022-12-08T13:14:00.044Z,94612.38
2022-12-08T13:16:36.603Z,94608.34
2022-12-08T13:19:15.837Z,94598.72
2022-12-08T13:21:42.676Z,94599.84
2022-12-08T13:24:27.002Z,94604.53
2022-12-08T13:27:05.664Z,94596.19
2022-12-08T13:29:33.615Z,94599.59
2022-12-08T13:32:30.695Z,94601.59
2022-12-08T13:35:04.974Z,94601.66
2022-12-08T13:37:54.002Z,94600.72
2022-12-08T13:40:25.697Z,94588.16
2022-12-08T13:43:26.304Z,94581.81
2022-12-08T13:46:57.878Z,94580.63
2022-12-08T13:57:30.402Z,94562.38
2022-12-08T14:00:02.488Z,94558.66
2022-12-08T14:02:47.470Z,94552.16
2022-12-08T14:05:19.108Z,94546.53
2022-12-08T14:07:51.824Z,94548.63
2022-12-08T14:10:31.248Z,94547.69
2022-12-08T14:13:05.356Z,94552.84
2022-12-08T14:15:37.760Z,94557.13
2022-12-08T14:18:06.731Z,94556.53
2022-12-08T14:20:57.702Z,94554.63
2022-12-08T14:23:22.051Z,94553.63
2022-12-08T14:25:48.889Z,94546.38
2022-12-08T14:28:16.306Z,94545.28
2022-12-08T14:30:42.914Z,94540.28
2022-12-08T14:33:15.881Z,94540.41
2022-12-08T14:35:42.653Z,94542.25
2022-12-08T14:38:18.217Z,94538.75
2022-12-08T14:40:47.979Z,94538.47
2022-12-08T14:43:20.638Z,94543.25
2022-12-08T14:45:50.045Z,94545.06
2022-12-08T14:48:25.679Z,94547.50
2022-12-08T14:51:01.332Z,94538.69
2022-12-08T14:53:43.561Z,94548.06
2022-12-08T14:56:32.856Z,94539.03
2022-12-08T14:59:20.449Z,94536.78
2022-12-08T15:01:50.559Z,94536.81
2022-12-08T15:04:25.770Z,94536.03
2022-12-08T15:07:18.585Z,94534.75
2022-12-08T15:09:48.524Z,94539.91
2022-12-08T15:12:14.960Z,94537.94
2022-12-08T15:15:14.239Z,94531.16
2022-12-08T15:17:42.094Z,94534.03
2022-12-08T15:20:35.494Z,94525.53
2022-12-08T15:23:02.602Z,94520.19
2022-12-08T15:25:29.248Z,94523.25
2022-12-08T15:27:55.747Z,94522.97
2022-12-08T15:30:22.383Z,94520.66
2022-12-08T15:32:48.985Z,94522.78
2022-12-08T15:35:16.901Z,94525.00
2022-12-08T15:37:43.429Z,94522.28
2022-12-08T15:40:17.533Z,94528.31
2022-12-08T15:42:44.334Z,94529.50
2022-12-08T15:45:15.985Z,94511.25
2022-12-08T15:47:44.813Z,94521.00
2022-12-08T15:50:17.310Z,94505.91
2022-12-08T15:52:43.821Z,94520.28
2022-12-08T15:55:19.326Z,94515.56
2022-12-08T15:58:51.770Z,94512.31
2022-12-08T16:00:54.301Z,94515.13
2022-12-08T16:09:13.809Z,94511.66
2022-12-08T16:12:05.155Z,94503.81
2022-12-08T16:15:39.844Z,94510.31
2022-12-08T16:17:17.971Z,94510.66
2022-12-08T16:19:45.684Z,94514.91
2022-12-08T16:22:51.681Z,94522.78
2022-12-08T16:25:17.728Z,94508.56
2022-12-08T16:28:17.385Z,94512.03
2022-12-08T16:30:33.462Z,94506.50
2022-12-08T16:32:59.917Z,94503.25
2022-12-08T16:35:26.437Z,94500.25
2022-12-08T16:37:53.174Z,94500.31
2022-12-08T16:40:19.920Z,94503.38
2022-12-08T16:42:46.691Z,94512.59
2022-12-08T16:45:22.202Z,94515.22
2022-12-08T16:47:53.755Z,94507.25
2022-12-08T16:50:22.090Z,94505.44
2022-12-08T16:52:55.372Z,94499.00
2022-12-08T16:55:22.073Z,94503.91
2022-12-08T16:57:48.607Z,94504.88
2022-12-08T17:00:19.103Z,94503.53
2022-12-08T17:02:46.276Z,94504.47
2022-12-08T17:05:15.025Z,94509.00
2022-12-08T17:07:44.036Z,94501.81
2022-12-08T17:10:14.511Z,94509.25
2022-12-08T17:12:41.501Z,94515.41
2022-12-08T17:15:11.789Z,94516.09
2022-12-08T17:17:38.905Z,94509.94
2022-12-08T17:20:08.485Z,94511.91
2022-12-08T17:22:36.037Z,94507.28
2022-12-08T17:25:03.362Z,94509.41
2022-12-08T17:27:29.912Z,94501.53
2022-12-08T17:29:56.575Z,94506.09
2022-12-08T17:32:23.862Z,94505.63
2022-12-08T17:34:50.686Z,94500.75
2022-12-08T17:37:18.495Z,94502.69
2022-12-08T17:39:45.564Z,94506.72
2022-12-08T17:42:12.061Z,94499.63
2022-12-08T17:44:38.583Z,94497.47
2022-12-08T17:47:05.476Z,94501.78
2022-12-08T17:49:32.336Z,94518.53
2022-12-08T17:52:02.191Z,94519.09
2022-12-08T17:54:29.231Z,94506.81
2022-12-08T17:56:56.474Z,94498.09
2022-12-08T17:59:22.951Z,94498.09
2022-12-08T18:01:52.229Z,94493.47
2022-12-08T18:04:18.772Z,94495.22
2022-12-08T18:06:45.669Z,94491.56
2022-12-08T18:09:13.250Z,94483.00
2022-12-08T18:11:40.014Z,94480.69
2022-12-08T18:14:07.845Z,94492.63
2022-12-08T18:16:34.709Z,94484.66
2022-12-08T18:19:01.234Z,94476.94
2022-12-08T18:21:28.311Z,94471.06
2022-12-08T18:23:54.795Z,94465.44
2022-12-08T18:26:21.246Z,94474.06
2022-12-08T18:28:47.995Z,94469.72
2022-12-08T18:31:18.673Z,94467.88
2022-12-08T18:33:47.103Z,94470.13
2022-12-08T18:36:19.903Z,94472.09
2022-12-08T18:38:47.272Z,94481.00
2022-12-08T18:41:18.036Z,94466.19
2022-12-08T18:43:45.190Z,94457.84
2022-12-08T18:46:14.224Z,94449.09
2022-12-08T18:48:43.813Z,94451.25
2022-12-08T18:51:21.725Z,94444.78
2022-12-08T18:53:49.220Z,94441.88
2022-12-08T18:56:28.172Z,94444.53
2022-12-08T18:59:01.488Z,94448.09
2022-12-08T19:01:30.397Z,94441.22
2022-12-08T19:04:26.647Z,94443.66
2022-12-08T19:06:45.552Z,94448.22
2022-12-08T19:09:12.336Z,94446.59
2022-12-08T19:11:38.910Z,94448.75
2022-12-08T19:14:05.382Z,94449.06
2022-12-08T19:16:31.961Z,94434.19
2022-12-08T19:18:58.983Z,94437.63
2022-12-08T19:21:25.810Z,94439.63
2022-12-08T19:23:52.983Z,94437.81
2022-12-08T19:26:20.317Z,94445.19
2022-12-08T19:28:47.612Z,94441.47
2022-12-08T19:31:14.456Z,94448.69
2022-12-08T19:33:41.028Z,94448.56
2022-12-08T19:36:12.080Z,94449.50
2022-12-08T19:38:38.649Z,94449.03
2022-12-08T19:41:05.309Z,94440.81
2022-12-08T19:43:31.760Z,94427.03
2022-12-08T19:45:58.425Z,94435.78
2022-12-08T19:48:25.119Z,94442.06
2022-12-08T19:50:51.617Z,94431.63
2022-12-08T19:53:18.219Z,94423.28
2022-12-08T19:55:44.853Z,94431.03
2022-12-08T19:58:11.404Z,94435.94
2022-12-08T20:00:39.223Z,94438.00
2022-12-08T20:03:06.398Z,94431.22
2022-12-08T20:05:36.107Z,94428.31
2022-12-08T20:08:02.671Z,94420.25
2022-12-08T20:10:32.720Z,94414.28
2022-12-08T20:13:00.481Z,94416.22
2022-12-08T20:15:26.987Z,94410.25
2022-12-08T20:17:53.499Z,94412.88
2022-12-08T20:20:19.972Z,94410.00
2022-12-08T20:22:46.521Z,94414.34
2022-12-08T20:25:13.538Z,94418.25
2022-12-08T20:27:40.896Z,94409.75
2022-12-08T20:30:13.327Z,94407.66
2022-12-08T20:32:43.233Z,94401.38
2022-12-08T20:35:09.770Z,94406.13
2022-12-08T20:37:36.241Z,94407.41
2022-12-08T20:40:03.639Z,94405.72
2022-12-08T20:42:30.153Z,94402.38
2022-12-08T20:44:56.651Z,94400.53
2022-12-08T20:47:23.332Z,94383.81
2022-12-08T20:49:49.937Z,94390.31
2022-12-08T20:52:16.571Z,94394.19
2022-12-08T20:54:43.156Z,94398.84
2022-12-08T20:57:09.879Z,94400.94
2022-12-08T20:59:36.369Z,94394.09
2022-12-08T21:02:03.248Z,94381.69
2022-12-08T21:04:30.275Z,94388.44
2022-12-08T21:06:56.975Z,94392.03
2022-12-08T21:09:23.690Z,94391.41
2022-12-08T21:11:50.414Z,94409.69
2022-12-08T21:14:16.888Z,94418.19
2022-12-08T21:16:43.733Z,94411.53
2022-12-08T21:19:11.630Z,94424.75
2022-12-08T21:21:38.258Z,94430.53
2022-12-08T21:24:05.189Z,94429.31
2022-12-08T21:26:31.841Z,94416.72
2022-12-08T21:28:58.478Z,94413.41
2022-12-08T21:31:25.417Z,94415.72
2022-12-08T21:33:52.327Z,94426.00
2022-12-08T21:36:21.347Z,94417.59
2022-12-08T21:38:48.715Z,94413.81
2022-12-08T21:41:18.325Z,94412.13
2022-12-08T21:43:45.005Z,94411.84
2022-12-08T21:46:16.037Z,94409.41
2022-12-08T21:48:42.819Z,94415.97
2022-12-08T21:51:09.669Z,94415.91
2022-12-08T21:53:36.474Z,94407.69
2022-12-08T21:56:08.891Z,94414.00
2022-12-08T21:58:35.691Z,94407.78
2022-12-08T22:01:06.897Z,94418.09
2022-12-08T22:03:33.877Z,94398.53
2022-12-08T22:06:10.518Z,94409.44
2022-12-08T22:08:37.160Z,94403.41
2022-12-08T22:11:04.879Z,94413.75
2022-12-08T22:13:34.666Z,94418.59
2022-12-08T22:16:04.805Z,94413.31
2022-12-08T22:18:32.278Z,94412.78
2022-12-08T22:20:58.908Z,94405.47
2022-12-08T22:23:25.759Z,94402.34
2022-12-08T22:25:59.656Z,94398.16
2022-12-08T22:28:27.545Z,94397.13
2022-12-08T22:30:54.328Z,94407.72
2022-12-08T22:33:21.141Z,94400.34
2022-12-08T22:36:08.348Z,94400.72
2022-12-08T22:38:37.082Z,94396.41
2022-12-08T22:41:04.901Z,94395.38
2022-12-08T22:43:31.434Z,94401.28
2022-12-08T22:45:57.991Z,94407.56
2022-12-08T22:48:24.843Z,94399.22
2022-12-08T22:50:51.561Z,94399.94
2022-12-08T22:53:17.999Z,94396.16
2022-12-08T22:55:44.735Z,94385.34
2022-12-08T22:58:12.302Z,94390.34
2022-12-08T23:00:39.538Z,94387.75
2022-12-08T23:03:06.904Z,94383.66
2022-12-08T23:05:38.885Z,94372.88
2022-12-08T23:08:07.327Z,94373.63
2022-12-08T23:10:35.830Z,94363.31
2022-12-08T23:13:04.149Z,94363.72
2022-12-08T23:15:32.108Z,94379.91
2022-12-08T23:17:58.804Z,94379.25
2022-12-08T23:20:25.430Z,94371.09
2022-12-08T23:22:51.961Z,94361.63
2022-12-08T23:25:18.625Z,94367.22
2022-12-08T23:27:46.252Z,94365.34
2022-12-08T23:30:13.704Z,94358.81
2022-12-08T23:32:40.872Z,94363.38
2022-12-08T23:35:08.503Z,94353.22
2022-12-08T23:37:35.544Z,94353.19
2022-12-08T23:40:02.093Z,94365.59
2022-12-08T23:42:29.548Z,94357.56
2022-12-08T23:44:56.117Z,94359.03
2022-12-08T23:47:22.725Z,94344.31
2022-12-08T23:49:49.261Z,94342.44
2022-12-08T23:52:16.026Z,94341.59
2022-12-08T23:54:42.540Z,94335.84
2022-12-08T23:57:09.029Z,94333.25
2022-12-08T23:59:35.487Z,94339.38
